Time;durP1;ratioP1;P1;durP2;ratioP2;P2;SDS_P1;SDS_P2;PMS_P1;PMS_P2;Temp;Humidity;BMP_temperature;BMP_pressure;BME280_temperature;BME280_humidity;BME280_pressure;Samples;Min_cycle;Max_cycle;Signal;HPM_P1;HPM_P2
2022/02/20 00:00:31;;;;;;;3.90;0.88;;;6.30;90.20;;;;;;6198428;28;20113;-82
2022/02/20 00:03:33;;;;;;;2.97;0.80;;;6.40;88.70;;;;;;6181353;28;20141;-82
2022/02/20 00:06:35;;;;;;;3.30;0.60;;;6.40;87.10;;;;;;6180982;28;20051;-83
2022/02/20 00:09:39;;;;;;;0.80;0.40;;;6.50;86.40;;;;;;6180924;28;20125;-82
2022/02/20 00:12:40;;;;;;;5.53;0.90;;;6.60;85.50;;;;;;6181213;28;20424;-82
2022/02/20 00:15:44;;;;;;;6.05;0.90;;;6.70;84.80;;;;;;6179160;28;20070;-82
2022/02/20 00:18:46;;;;;;;5.72;0.60;;;6.80;84.30;;;;;;6178940;28;20417;-83
2022/02/20 00:21:47;;;;;;;8.95;0.85;;;6.90;83.50;;;;;;6179881;28;20047;-84
2022/02/20 00:24:49;;;;;;;11.02;0.95;;;7.00;81.40;;;;;;6179610;28;20125;-83
2022/02/20 00:27:51;;;;;;;2.17;0.63;;;7.10;79.90;;;;;;6179476;28;20042;-83
2022/02/20 00:30:54;;;;;;;1.40;0.60;;;7.10;79.40;;;;;;6179045;28;20050;-83
2022/02/20 00:33:56;;;;;;;1.95;0.93;;;7.20;78.70;;;;;;6178934;28;20039;-84
2022/02/20 00:36:58;;;;;;;4.05;1.05;;;7.30;78.60;;;;;;6179094;28;20053;-83
2022/02/20 00:40:00;;;;;;;9.82;3.08;;;7.40;78.60;;;;;;6178821;28;20178;-83
2022/02/20 00:43:02;;;;;;;5.72;0.70;;;7.50;78.00;;;;;;6178431;28;20070;-81
2022/02/20 00:46:05;;;;;;;2.03;0.40;;;7.60;77.80;;;;;;6180083;28;20047;-81
2022/02/20 00:49:07;;;;;;;3.35;0.55;;;7.60;76.70;;;;;;6183359;28;20186;-80
2022/02/20 00:52:09;;;;;;;2.63;0.80;;;7.60;77.00;;;;;;6180452;28;20110;-80
2022/02/20 00:55:11;;;;;;;4.70;1.00;;;7.70;76.70;;;;;;6178644;28;20046;-80
2022/02/20 00:58:12;;;;;;;1.95;0.50;;;7.80;76.00;;;;;;6179734;28;20062;-80
2022/02/20 01:01:16;;;;;;;2.15;0.70;;;7.80;75.90;;;;;;6179900;28;20054;-80
2022/02/20 01:04:17;;;;;;;1.90;0.95;;;7.80;74.60;;;;;;6179110;28;20058;-80
2022/02/20 01:07:21;;;;;;;5.88;0.88;;;7.90;74.20;;;;;;6179536;28;20493;-80
2022/02/20 01:10:22;;;;;;;4.00;0.95;;;7.90;73.60;;;;;;6178067;28;20047;-81
2022/02/20 01:13:24;;;;;;;4.72;0.50;;;7.90;73.90;;;;;;6178873;28;20074;-81
2022/02/20 01:16:27;;;;;;;6.47;1.30;;;8.00;73.70;;;;;;6174008;28;20047;-80
2022/02/20 01:19:29;;;;;;;7.68;0.90;;;8.10;73.00;;;;;;6174820;28;20057;-80
2022/02/20 01:22:31;;;;;;;11.77;1.55;;;8.10;72.80;;;;;;6174292;28;20043;-79
2022/02/20 01:25:33;;;;;;;3.90;0.63;;;8.10;72.30;;;;;;6174318;28;20070;-79
2022/02/20 01:28:35;;;;;;;5.80;1.20;;;8.20;73.20;;;;;;6174475;28;20047;-78
2022/02/20 01:31:38;;;;;;;2.75;0.55;;;8.10;72.60;;;;;;6174387;28;20062;-81
2022/02/20 01:34:40;;;;;;;4.90;1.05;;;8.10;73.00;;;;;;6165034;28;20055;-80
2022/02/20 01:37:42;;;;;;;5.60;0.95;;;8.20;73.30;;;;;;6150605;28;20408;-80
2022/02/20 01:40:44;;;;;;;1.33;0.60;;;8.20;73.50;;;;;;6151276;28;20058;-80
2022/02/20 01:43:46;;;;;;;2.60;0.68;;;8.20;73.00;;;;;;6188388;23;20055;-82
2022/02/20 01:46:50;;;;;;;7.57;1.85;;;8.20;73.00;;;;;;6175690;28;20054;-83
2022/02/20 01:49:54;;;;;;;2.60;0.82;;;8.20;72.80;;;;;;6176210;28;20050;-82
2022/02/20 01:52:56;;;;;;;5.60;0.50;;;8.20;73.50;;;;;;6176800;28;20744;-82
2022/02/20 01:55:58;;;;;;;3.83;2.53;;;8.30;73.00;;;;;;6176214;28;20053;-82
2022/02/20 01:59:01;;;;;;;6.28;0.95;;;8.30;72.80;;;;;;6175599;28;20050;-81
2022/02/20 02:02:04;;;;;;;6.00;0.52;;;8.30;73.00;;;;;;6176130;28;20049;-82
2022/02/20 02:05:07;;;;;;;6.40;0.77;;;8.40;72.70;;;;;;6176265;28;20173;-81
2022/02/20 02:08:09;;;;;;;2.10;0.82;;;8.40;72.70;;;;;;6174826;28;20050;-81
2022/02/20 02:11:12;;;;;;;7.47;0.77;;;8.50;73.10;;;;;;6175982;28;20070;-80
2022/02/20 02:14:14;;;;;;;6.57;0.90;;;8.40;74.40;;;;;;6175000;28;20137;-79
2022/02/20 02:17:17;;;;;;;3.08;0.80;;;8.40;75.10;;;;;;6175771;28;20077;-79
2022/02/20 02:20:19;;;;;;;5.15;0.80;;;8.40;75.80;;;;;;6175164;28;20532;-81
2022/02/20 02:23:22;;;;;;;7.30;1.00;;;8.30;75.00;;;;;;6175581;28;20650;-80
2022/02/20 02:26:25;;;;;;;1.42;0.80;;;8.30;74.90;;;;;;6174518;28;20051;-82
2022/02/20 02:29:27;;;;;;;5.47;1.15;;;8.20;74.60;;;;;;6175433;28;20051;-82
2022/02/20 02:32:29;;;;;;;3.83;0.75;;;8.20;74.40;;;;;;6174489;28;20101;-81
2022/02/20 02:35:31;;;;;;;6.28;0.70;;;8.20;76.00;;;;;;6174573;28;20513;-81
2022/02/20 02:38:34;;;;;;;7.72;1.00;;;8.20;77.00;;;;;;6174486;28;20054;-81
2022/02/20 02:41:36;;;;;;;3.38;0.43;;;8.10;78.40;;;;;;6174657;28;20065;-82
2022/02/20 02:44:38;;;;;;;2.70;0.80;;;8.00;78.80;;;;;;6177214;28;20416;-78
2022/02/20 02:47:40;;;;;;;3.92;0.70;;;8.00;78.50;;;;;;6176641;28;20054;-81
2022/02/20 02:50:41;;;;;;;5.25;1.42;;;8.00;79.20;;;;;;6177495;28;20057;-81
2022/02/20 02:53:45;;;;;;;5.13;0.70;;;7.90;80.10;;;;;;6176967;28;20055;-81
2022/02/20 02:56:47;;;;;;;2.55;0.52;;;7.80;80.60;;;;;;6178053;28;20058;-81
2022/02/20 02:59:49;;;;;;;5.65;1.50;;;7.80;80.80;;;;;;6177131;28;20049;-81
2022/02/20 03:02:51;;;;;;;5.03;0.98;;;7.80;80.70;;;;;;6177457;28;20053;-81
2022/02/20 03:05:57;;;;;;;14.32;3.85;;;7.80;82.00;;;;;;6177760;28;20453;-81
2022/02/20 03:09:01;;;;;;;3.05;1.08;;;7.80;82.20;;;;;;6177568;28;20046;-81
2022/02/20 03:12:03;;;;;;;3.88;0.63;;;7.80;82.90;;;;;;6177381;28;20062;-81
2022/02/20 03:15:05;;;;;;;6.50;0.60;;;7.70;84.20;;;;;;6176508;28;20058;-81
2022/02/20 03:18:07;;;;;;;4.05;0.98;;;7.70;84.30;;;;;;6176738;28;20083;-80
2022/02/20 03:21:09;;;;;;;6.95;1.08;;;7.70;84.90;;;;;;6176813;28;20484;-80
2022/02/20 03:24:12;;;;;;;3.72;0.82;;;7.60;85.00;;;;;;6176913;28;20043;-81
2022/02/20 03:27:14;;;;;;;3.38;0.57;;;7.60;85.60;;;;;;6176500;28;20507;-81
2022/02/20 03:30:16;;;;;;;4.55;0.70;;;7.50;85.50;;;;;;6176152;28;20420;-81
2022/02/20 03:33:19;;;;;;;13.05;0.93;;;7.50;85.60;;;;;;6176591;28;20149;-81
2022/02/20 03:36:21;;;;;;;3.60;0.70;;;7.60;86.00;;;;;;6176038;28;20046;-81
2022/02/20 03:39:24;;;;;;;5.85;1.02;;;7.60;86.00;;;;;;6175605;28;20053;-80
2022/02/20 03:42:26;;;;;;;3.67;0.43;;;7.60;85.90;;;;;;6139097;28;1082998;-80
2022/02/20 03:45:28;;;;;;;7.35;0.75;;;7.60;86.00;;;;;;6176974;28;20062;-80
2022/02/20 03:48:30;;;;;;;5.10;0.47;;;7.60;86.30;;;;;;6177160;28;20043;-80
2022/02/20 03:51:32;;;;;;;1.65;0.47;;;7.60;85.60;;;;;;6177062;28;20054;-80
2022/02/20 03:54:35;;;;;;;3.03;0.38;;;7.60;85.50;;;;;;6175553;28;20419;-80
2022/02/20 03:57:37;;;;;;;2.92;0.73;;;7.70;85.80;;;;;;6176918;28;20054;-80
2022/02/20 04:00:39;;;;;;;2.60;0.50;;;7.60;85.90;;;;;;6177442;28;20050;-80
2022/02/20 04:03:41;;;;;;;6.03;1.10;;;7.60;86.60;;;;;;6177021;28;20058;-80
2022/02/20 04:06:43;;;;;;;2.70;0.60;;;7.60;86.30;;;;;;6176532;28;20054;-80
2022/02/20 04:09:46;;;;;;;4.03;0.50;;;7.60;86.30;;;;;;6177363;28;20250;-80
2022/02/20 04:12:48;;;;;;;2.65;0.50;;;7.60;86.70;;;;;;6177708;28;20077;-80
2022/02/20 04:15:50;;;;;;;4.38;0.50;;;7.60;86.70;;;;;;6176298;28;20101;-80
2022/02/20 04:18:51;;;;;;;2.13;0.52;;;7.60;86.80;;;;;;6177335;28;20123;-80
2022/02/20 04:21:53;;;;;;;5.32;0.55;;;7.70;86.30;;;;;;6177013;28;20046;-80
2022/02/20 04:24:56;;;;;;;1.13;0.17;;;7.70;86.10;;;;;;6177295;28;20133;-80
2022/02/20 04:27:58;;;;;;;2.70;0.40;;;7.70;86.40;;;;;;6176796;28;20057;-80
2022/02/20 04:31:00;;;;;;;3.15;0.40;;;7.60;85.70;;;;;;6176396;28;20422;-80
2022/02/20 04:34:02;;;;;;;3.33;0.40;;;7.70;86.10;;;;;;6176915;28;20058;-79
2022/02/20 04:37:05;;;;;;;3.03;0.52;;;7.80;86.20;;;;;;6176717;28;20050;-80
2022/02/20 04:40:09;;;;;;;3.72;0.47;;;7.80;85.80;;;;;;6176155;28;20051;-80
2022/02/20 04:43:11;;;;;;;3.75;0.17;;;7.80;85.20;;;;;;6176421;28;20054;-80
2022/02/20 04:46:12;;;;;;;3.08;0.22;;;7.80;85.80;;;;;;6174767;28;20105;-80
2022/02/20 04:49:14;;;;;;;2.50;1.10;;;7.80;86.80;;;;;;6176273;28;20398;-80
2022/02/20 04:52:16;;;;;;;2.60;0.30;;;7.80;86.60;;;;;;6175779;28;20047;-80
2022/02/20 04:55:19;;;;;;;4.15;0.75;;;7.80;87.00;;;;;;6176000;28;20095;-81
2022/02/20 04:58:21;;;;;;;3.38;0.60;;;7.70;86.80;;;;;;6176010;28;20053;-80
2022/02/20 05:01:24;;;;;;;3.13;1.25;;;7.70;86.80;;;;;;6176856;28;20496;-80
2022/02/20 05:04:26;;;;;;;11.25;0.90;;;7.80;86.80;;;;;;6174786;28;20130;-80
2022/02/20 05:07:29;;;;;;;2.58;0.25;;;7.80;86.20;;;;;;6174061;28;20057;-78
2022/02/20 05:10:32;;;;;;;3.13;0.30;;;7.80;86.30;;;;;;6175047;28;20050;-79
2022/02/20 05:13:34;;;;;;;0.98;0.30;;;7.80;86.30;;;;;;6174358;28;20046;-78
2022/02/20 05:16:35;;;;;;;0.80;0.20;;;7.80;86.20;;;;;;6174610;28;20059;-79
2022/02/20 05:19:37;;;;;;;4.90;0.60;;;7.90;87.00;;;;;;6173936;28;20053;-79
2022/02/20 05:22:39;;;;;;;3.65;0.50;;;7.90;86.00;;;;;;6174067;28;20047;-79
2022/02/20 05:25:42;;;;;;;1.52;0.50;;;7.90;85.80;;;;;;6174095;28;20138;-79
2022/02/20 05:28:44;;;;;;;0.47;0.15;;;7.90;85.90;;;;;;6174848;28;20051;-79
2022/02/20 05:31:46;;;;;;;6.18;0.57;;;8.00;86.80;;;;;;6174167;28;20051;-80
2022/02/20 05:34:47;;;;;;;1.10;0.45;;;8.10;85.10;;;;;;6173711;28;20047;-78
2022/02/20 05:37:51;;;;;;;2.88;0.60;;;8.10;84.90;;;;;;6173925;28;20136;-79
2022/02/20 05:40:54;;;;;;;3.13;0.32;;;8.20;84.70;;;;;;6174322;28;20047;-79
2022/02/20 05:43:56;;;;;;;3.60;1.65;;;8.20;84.40;;;;;;6173558;28;20057;-78
2022/02/20 05:46:57;;;;;;;1.52;0.40;;;8.20;85.20;;;;;;6173345;28;20057;-79
2022/02/20 05:49:59;;;;;;;2.22;0.63;;;8.20;85.60;;;;;;6173725;28;20046;-79
2022/02/20 05:53:01;;;;;;;1.05;0.95;;;8.20;86.40;;;;;;6173722;28;20369;-78
2022/02/20 05:56:05;;;;;;;1.42;0.47;;;8.20;86.40;;;;;;6173247;28;20054;-78
2022/02/20 05:59:07;;;;;;;1.17;0.20;;;8.10;86.40;;;;;;6173222;28;20078;-78
2022/02/20 06:02:08;;;;;;;2.80;1.42;;;8.10;86.40;;;;;;6172911;28;20496;-77
2022/02/20 06:05:10;;;;;;;2.20;0.32;;;8.10;86.60;;;;;;6173759;28;20051;-78
2022/02/20 06:08:13;;;;;;;2.95;0.47;;;8.10;86.10;;;;;;6173150;28;20043;-79
2022/02/20 06:11:16;;;;;;;20.42;9.18;;;8.10;86.20;;;;;;6173289;28;20659;-78
2022/02/20 06:14:17;;;;;;;2.60;0.40;;;8.10;86.00;;;;;;6173307;28;20050;-78
2022/02/20 06:17:19;;;;;;;1.90;0.85;;;8.10;85.60;;;;;;6174009;28;20057;-78
2022/02/20 06:20:21;;;;;;;1.80;0.40;;;8.10;85.20;;;;;;6177867;28;20496;-77
2022/02/20 06:23:23;;;;;;;3.55;0.50;;;8.10;85.20;;;;;;6178233;28;20058;-78
2022/02/20 06:26:26;;;;;;;1.40;0.52;;;8.10;85.00;;;;;;6177876;28;20054;-77
2022/02/20 06:29:28;;;;;;;1.05;0.28;;;8.10;84.70;;;;;;6178708;28;20141;-77
2022/02/20 06:32:30;;;;;;;1.70;0.40;;;8.20;84.80;;;;;;6178279;28;20129;-77
2022/02/20 06:35:31;;;;;;;0.52;0.20;;;8.20;84.80;;;;;;6177507;28;20051;-77
2022/02/20 06:38:33;;;;;;;0.68;0.20;;;8.20;84.60;;;;;;6177948;28;20121;-77
2022/02/20 06:41:36;;;;;;;2.25;0.20;;;8.20;84.60;;;;;;6177861;28;20061;-77
2022/02/20 06:44:38;;;;;;;4.20;0.30;;;8.20;84.30;;;;;;6177628;28;20050;-79
2022/02/20 06:47:40;;;;;;;1.17;0.20;;;8.30;84.50;;;;;;6177493;28;20062;-78
2022/02/20 06:50:41;;;;;;;0.50;0.10;;;8.30;83.80;;;;;;6177158;28;20057;-77
2022/02/20 06:53:43;;;;;;;2.45;0.63;;;8.30;85.00;;;;;;6177824;28;20129;-78
2022/02/20 06:56:46;;;;;;;1.15;0.20;;;8.40;83.90;;;;;;6177712;28;20085;-77
2022/02/20 06:59:49;;;;;;;0.15;0.10;;;8.40;83.50;;;;;;6177381;28;20182;-77
2022/02/20 07:02:51;;;;;;;0.13;0.03;;;8.40;83.30;;;;;;6177097;28;20062;-79
2022/02/20 07:05:53;;;;;;;0.80;0.20;;;8.40;83.20;;;;;;6177184;28;20094;-78
2022/02/20 07:08:54;;;;;;;0.10;0.00;;;8.40;82.80;;;;;;6177671;28;20051;-78
2022/02/20 07:11:57;;;;;;;1.02;0.20;;;8.30;82.70;;;;;;6176868;28;20121;-78
2022/02/20 07:14:59;;;;;;;1.05;0.15;;;8.40;82.80;;;;;;6176754;28;20505;-77
2022/02/20 07:18:01;;;;;;;0.52;0.08;;;8.40;82.60;;;;;;6176926;28;20046;-77
2022/02/20 07:21:03;;;;;;;0.57;0.20;;;8.50;82.40;;;;;;6177540;28;20051;-77
2022/02/20 07:24:05;;;;;;;5.15;0.30;;;8.60;82.80;;;;;;6176555;28;20043;-78
2022/02/20 07:27:08;;;;;;;1.08;0.22;;;8.60;82.20;;;;;;6176369;28;20050;-77
2022/02/20 07:30:12;;;;;;;1.10;0.30;;;8.70;82.00;;;;;;6176604;28;20051;-77
2022/02/20 07:33:15;;;;;;;1.75;0.20;;;8.70;82.20;;;;;;6177158;28;20057;-78
2022/02/20 07:36:17;;;;;;;2.30;0.20;;;8.70;82.00;;;;;;6176111;28;20051;-78
2022/02/20 07:39:20;;;;;;;0.57;0.20;;;8.80;82.40;;;;;;6176400;28;20050;-77
2022/02/20 07:42:24;;;;;;;1.23;0.20;;;8.80;83.60;;;;;;6176065;28;20531;-78
2022/02/20 07:45:26;;;;;;;0.45;0.20;;;8.80;84.20;;;;;;6176640;28;20133;-78
2022/02/20 07:48:28;;;;;;;0.57;0.28;;;8.80;83.30;;;;;;6175921;28;20055;-78
2022/02/20 07:51:30;;;;;;;0.52;0.10;;;8.80;83.80;;;;;;6176178;28;20277;-78
2022/02/20 07:54:31;;;;;;;0.88;0.10;;;8.80;83.00;;;;;;6175547;28;20043;-78
2022/02/20 07:57:35;;;;;;;0.40;0.10;;;8.80;82.40;;;;;;6176210;28;20133;-77
2022/02/20 08:00:36;;;;;;;1.38;0.17;;;8.90;82.50;;;;;;6176695;28;20057;-79
2022/02/20 08:03:39;;;;;;;0.98;0.60;;;9.00;81.20;;;;;;6175781;28;20059;-78
2022/02/20 08:06:41;;;;;;;0.30;0.10;;;9.20;80.70;;;;;;6175719;28;20125;-78
2022/02/20 08:09:42;;;;;;;2.17;0.25;;;9.30;80.20;;;;;;6150244;28;20050;-78
2022/02/20 08:12:46;;;;;;;0.47;0.30;;;9.40;79.20;;;;;;6175872;28;20050;-78
2022/02/20 08:15:48;;;;;;;2.60;1.20;;;9.40;78.80;;;;;;6175384;28;20189;-78
2022/02/20 08:18:50;;;;;;;8.48;0.30;;;9.50;78.70;;;;;;6175481;28;20420;-77
2022/02/20 08:21:52;;;;;;;4.40;0.20;;;9.60;78.60;;;;;;6178636;28;20042;-79
2022/02/20 08:24:54;;;;;;;2.30;0.47;;;9.60;77.70;;;;;;6177041;28;20051;-79
2022/02/20 08:27:57;;;;;;;1.00;0.20;;;9.70;77.50;;;;;;6176153;28;20134;-78
2022/02/20 08:30:59;;;;;;;0.38;0.20;;;9.80;77.80;;;;;;6176137;28;20086;-78
2022/02/20 08:34:00;;;;;;;3.58;0.30;;;9.90;76.50;;;;;;6175821;28;20039;-79
2022/02/20 08:37:04;;;;;;;1.05;0.40;;;9.90;76.00;;;;;;6176275;28;20055;-79
2022/02/20 08:40:08;;;;;;;1.23;0.25;;;9.90;76.30;;;;;;6175301;28;20133;-79
2022/02/20 08:43:11;;;;;;;0.77;0.22;;;9.90;75.80;;;;;;6175323;28;20069;-78
2022/02/20 08:46:13;;;;;;;2.17;0.20;;;10.00;76.00;;;;;;6174994;28;20508;-80
2022/02/20 08:49:14;;;;;;;0.93;0.90;;;10.00;76.30;;;;;;6175259;28;20051;-79
2022/02/20 08:52:16;;;;;;;0.95;0.15;;;10.10;75.80;;;;;;6174738;28;20047;-78
2022/02/20 08:55:18;;;;;;;2.15;0.03;;;10.20;75.30;;;;;;6174611;28;20054;-78
2022/02/20 08:58:21;;;;;;;0.85;0.20;;;10.20;75.00;;;;;;6174474;28;20067;-77
2022/02/20 09:01:24;;;;;;;0.60;0.20;;;10.30;74.70;;;;;;6175803;28;20066;-77
2022/02/20 09:04:26;;;;;;;2.03;0.17;;;10.40;74.70;;;;;;6174047;28;20078;-79
2022/02/20 09:07:28;;;;;;;1.73;0.20;;;10.40;74.00;;;;;;6174872;28;20076;-78
2022/02/20 09:10:30;;;;;;;0.45;0.10;;;10.40;74.60;;;;;;6174188;28;20226;-79
2022/02/20 09:13:33;;;;;;;1.00;0.15;;;10.40;73.70;;;;;;6174377;28;20054;-79
2022/02/20 09:16:35;;;;;;;1.02;0.20;;;10.30;73.90;;;;;;6174738;28;20505;-79
2022/02/20 09:19:36;;;;;;;0.30;0.08;;;10.30;74.00;;;;;;6174369;28;20043;-78
2022/02/20 09:22:41;;;;;;;0.40;0.08;;;10.20;74.20;;;;;;6174112;28;20053;-79
2022/02/20 09:25:43;;;;;;;1.13;0.43;;;10.20;74.50;;;;;;6174173;28;20054;-79
2022/02/20 09:28:46;;;;;;;2.75;0.30;;;10.20;74.30;;;;;;6174866;28;20165;-79
2022/02/20 09:31:48;;;;;;;0.80;0.10;;;10.20;74.50;;;;;;6173859;28;20054;-78
2022/02/20 09:34:50;;;;;;;1.13;0.15;;;10.20;74.20;;;;;;6173630;28;20457;-78
2022/02/20 09:37:51;;;;;;;0.45;0.22;;;10.20;74.30;;;;;;6173662;28;20046;-79
2022/02/20 09:40:53;;;;;;;0.10;0.10;;;10.30;74.10;;;;;;6174526;28;20046;-78
2022/02/20 09:43:57;;;;;;;0.30;0.13;;;10.50;73.70;;;;;;6173726;28;20054;-80
2022/02/20 09:46:59;;;;;;;3.33;0.17;;;10.40;73.60;;;;;;6164733;28;20050;-79
2022/02/20 09:50:02;;;;;;;0.30;0.30;;;10.40;73.50;;;;;;6194042;28;20049;-79
2022/02/20 09:53:04;;;;;;;0.35;0.17;;;10.50;74.00;;;;;;6199409;28;20050;-79
2022/02/20 09:56:06;;;;;;;1.67;0.25;;;10.50;73.30;;;;;;6175927;28;20141;-80
2022/02/20 09:59:09;;;;;;;1.30;0.10;;;10.70;73.50;;;;;;6173442;28;20057;-79
2022/02/20 10:02:14;;;;;;;1.13;0.40;;;10.90;73.00;;;;;;6175187;28;20069;-79
2022/02/20 10:05:18;;;;;;;4.75;0.20;;;10.90;72.80;;;;;;6175260;28;20133;-81
2022/02/20 10:08:19;;;;;;;2.30;0.10;;;11.00;72.30;;;;;;6175312;28;20058;-80
2022/02/20 10:11:23;;;;;;;0.90;0.30;;;11.00;72.10;;;;;;6174400;28;20043;-79
2022/02/20 10:14:31;;;;;;;1.75;0.25;;;11.00;71.90;;;;;;6175668;28;20046;-81
2022/02/20 10:17:33;;;;;;;0.47;0.20;;;11.00;71.90;;;;;;6183254;28;20047;-80
2022/02/20 10:20:35;;;;;;;2.03;0.15;;;11.00;72.10;;;;;;6199797;28;20060;-80
2022/02/20 10:23:39;;;;;;;4.90;0.50;;;11.20;71.50;;;;;;6200494;28;20046;-80
2022/02/20 10:26:43;;;;;;;0.95;0.20;;;11.20;71.30;;;;;;6198668;28;20053;-80
2022/02/20 10:29:46;;;;;;;0.75;0.20;;;11.20;71.60;;;;;;6199403;28;20057;-81
2022/02/20 10:33:03;;;;;;;0.52;0.10;;;11.20;72.10;;;;;;6199715;28;20500;-79
2022/02/20 10:36:05;;;;;;;1.35;0.43;;;11.30;71.20;;;;;;6198823;28;20068;-80
2022/02/20 10:39:17;;;;;;;0.30;0.10;;;11.40;70.90;;;;;;6199296;28;20089;-81
2022/02/20 10:42:24;;;;;;;2.85;0.22;;;11.50;70.90;;;;;;6200120;28;20046;-81
2022/02/20 10:45:29;;;;;;;0.43;0.10;;;11.40;70.60;;;;;;6199706;28;20496;-80
2022/02/20 10:48:38;;;;;;;1.63;0.30;;;11.40;70.80;;;;;;6190906;28;20046;-80
2022/02/20 10:51:41;;;;;;;1.60;0.50;;;11.40;70.80;;;;;;6200967;28;20133;-81
2022/02/20 10:55:01;;;;;;;1.52;0.35;;;11.50;71.00;;;;;;6202016;28;20689;-80
2022/02/20 10:58:09;;;;;;;5.95;4.78;;;11.60;70.90;;;;;;6190606;28;20062;-82
2022/02/20 11:01:22;;;;;;;2.13;0.22;;;11.70;71.30;;;;;;6173098;28;20121;-79
2022/02/20 11:04:24;;;;;;;0.38;0.30;;;11.70;70.70;;;;;;6176768;28;20051;-84
2022/02/20 11:07:26;;;;;;;2.88;0.32;;;11.70;71.00;;;;;;6178819;28;20043;-82
2022/02/20 11:10:27;;;;;;;3.15;0.45;;;11.70;70.70;;;;;;6179175;28;20046;-80
2022/02/20 11:13:30;;;;;;;0.30;0.10;;;11.60;71.00;;;;;;6180544;28;20062;-80
2022/02/20 11:16:33;;;;;;;1.05;0.50;;;11.70;71.10;;;;;;6187213;28;20050;-79
2022/02/20 11:19:39;;;;;;;0.55;0.20;;;11.70;71.00;;;;;;6179443;28;20050;-80
2022/02/20 11:22:45;;;;;;;1.70;0.30;;;11.70;70.80;;;;;;6178625;28;20190;-80
2022/02/20 11:25:47;;;;;;;0.28;0.10;;;11.60;71.00;;;;;;6178855;28;20047;-81
2022/02/20 11:28:50;;;;;;;1.00;0.22;;;11.70;70.80;;;;;;6180003;28;20055;-80
2022/02/20 11:31:53;;;;;;;1.55;0.35;;;11.60;71.10;;;;;;6179500;28;20047;-80
2022/02/20 11:34:56;;;;;;;3.22;0.50;;;11.60;71.60;;;;;;6178114;28;20054;-80
2022/02/20 11:38:04;;;;;;;2.40;0.20;;;11.40;71.90;;;;;;6179426;28;20125;-80
2022/02/20 11:41:11;;;;;;;0.73;0.17;;;11.40;72.40;;;;;;6179732;28;20416;-80
2022/02/20 11:44:15;;;;;;;0.75;0.28;;;11.50;72.60;;;;;;6179173;28;20055;-81
2022/02/20 11:47:41;;;;;;;5.85;1.88;;;11.40;72.10;;;;;;6187533;28;20057;-81
2022/02/20 11:50:44;;;;;;;3.42;0.30;;;11.50;72.30;;;;;;6173145;28;20046;-81
2022/02/20 11:53:46;;;;;;;0.45;0.10;;;11.50;72.20;;;;;;6178735;28;20057;-81
2022/02/20 11:57:22;;;;;;;1.50;0.50;;;11.60;72.30;;;;;;6178934;28;20105;-81
2022/02/20 12:00:24;;;;;;;2.63;0.73;;;11.50;72.10;;;;;;6177121;28;20050;-82
2022/02/20 12:03:29;;;;;;;0.43;0.10;;;11.50;72.00;;;;;;6178779;28;20066;-80
2022/02/20 12:06:34;;;;;;;3.83;0.75;;;11.60;72.00;;;;;;6178457;28;20464;-79
2022/02/20 12:09:36;;;;;;;0.55;0.20;;;11.60;72.00;;;;;;6178051;28;20464;-80
2022/02/20 12:12:38;;;;;;;2.22;0.38;;;11.80;72.10;;;;;;6178646;28;20058;-81
2022/02/20 12:15:41;;;;;;;1.85;0.50;;;11.80;71.20;;;;;;6174243;28;20187;-80
2022/02/20 12:19:13;;;;;;;0.73;0.15;;;11.90;71.40;;;;;;6194139;28;20050;-80
2022/02/20 12:22:25;;;;;;;0.63;0.30;;;11.90;71.00;;;;;;6202518;28;20058;-80
2022/02/20 12:25:37;;;;;;;2.00;1.40;;;12.00;71.10;;;;;;6202255;28;20130;-81
2022/02/20 12:28:41;;;;;;;2.78;0.30;;;12.10;71.00;;;;;;6202050;28;20416;-80
2022/02/20 12:32:00;;;;;;;0.17;0.10;;;12.20;70.60;;;;;;6182469;28;20051;-80
2022/02/20 12:35:15;;;;;;;5.43;0.32;;;12.30;70.70;;;;;;6178170;28;20069;-80
2022/02/20 12:38:17;;;;;;;1.98;0.20;;;12.40;70.30;;;;;;6182303;28;20066;-81
2022/02/20 12:41:18;;;;;;;0.90;0.20;;;12.40;70.30;;;;;;6184339;28;20080;-81
2022/02/20 12:44:20;;;;;;;0.63;0.40;;;12.40;70.30;;;;;;6181806;28;20053;-81
2022/02/20 12:47:22;;;;;;;0.85;0.20;;;12.30;70.40;;;;;;6195585;28;20042;-82
2022/02/20 12:50:28;;;;;;;2.90;0.35;;;12.20;70.50;;;;;;6179092;28;20085;-81
2022/02/20 12:53:30;;;;;;;2.05;0.17;;;12.20;70.80;;;;;;6177308;28;20061;-79
2022/02/20 12:56:32;;;;;;;2.08;0.30;;;12.20;71.00;;;;;;6181560;28;20086;-82
2022/02/20 12:59:34;;;;;;;4.15;0.63;;;12.20;71.50;;;;;;6179182;28;20121;-81
2022/02/20 13:02:42;;;;;;;5.38;0.35;;;12.20;71.10;;;;;;6176328;28;20050;-82
2022/02/20 13:05:47;;;;;;;4.77;1.53;;;12.30;71.10;;;;;;6176397;28;20058;-80
2022/02/20 13:08:49;;;;;;;2.50;0.63;;;12.30;71.00;;;;;;6178113;28;20051;-81
2022/02/20 13:11:52;;;;;;;1.02;0.73;;;12.20;71.10;;;;;;6179299;28;20043;-81
2022/02/20 13:15:01;;;;;;;0.52;0.30;;;12.30;71.20;;;;;;6177318;28;20054;-82
2022/02/20 13:18:07;;;;;;;2.47;0.20;;;12.30;71.20;;;;;;6189891;28;20046;-81
2022/02/20 13:21:15;;;;;;;0.82;0.20;;;12.40;71.10;;;;;;6205389;28;20511;-81
2022/02/20 13:24:17;;;;;;;4.53;0.40;;;12.30;71.40;;;;;;6200275;28;20089;-80
2022/02/20 13:27:18;;;;;;;3.47;0.35;;;12.30;71.50;;;;;;6199503;28;20056;-82
2022/02/20 13:30:27;;;;;;;1.02;0.40;;;12.30;71.90;;;;;;6199121;28;20054;-79
2022/02/20 13:33:36;;;;;;;3.42;0.20;;;12.30;71.90;;;;;;6199738;28;20050;-81
2022/02/20 13:36:39;;;;;;;0.45;0.10;;;12.30;71.80;;;;;;6200208;28;20050;-81
2022/02/20 13:39:41;;;;;;;1.45;0.20;;;12.30;71.60;;;;;;6200255;28;20054;-81
2022/02/20 13:42:59;;;;;;;1.40;0.63;;;12.30;71.50;;;;;;6177179;28;20125;-84
2022/02/20 13:46:01;;;;;;;5.20;0.38;;;12.20;71.50;;;;;;6177836;28;20412;-80
2022/02/20 13:49:04;;;;;;;1.85;0.30;;;12.20;71.50;;;;;;6185184;28;20096;-80
2022/02/20 13:52:07;;;;;;;1.50;0.40;;;12.40;71.80;;;;;;6175942;28;20086;-81
2022/02/20 13:55:19;;;;;;;0.68;0.28;;;12.30;71.60;;;;;;6176296;28;20050;-80
2022/02/20 13:58:25;;;;;;;1.95;0.17;;;12.20;71.70;;;;;;6175701;28;20054;-80
2022/02/20 14:01:40;;;;;;;1.00;0.30;;;12.30;71.90;;;;;;6175348;28;20137;-80
2022/02/20 14:04:47;;;;;;;0.57;0.35;;;12.20;71.80;;;;;;6174992;28;20098;-83
2022/02/20 14:07:50;;;;;;;2.10;0.10;;;12.30;72.00;;;;;;6174509;28;20098;-81
2022/02/20 14:10:53;;;;;;;1.30;0.22;;;12.40;71.60;;;;;;6176196;28;20074;-82
2022/02/20 14:13:55;;;;;;;1.50;0.43;;;12.40;71.50;;;;;;6175030;28;20049;-81
2022/02/20 14:16:57;;;;;;;0.98;0.20;;;12.40;71.60;;;;;;6176506;28;20050;-84
2022/02/20 14:19:59;;;;;;;0.68;0.10;;;12.40;72.20;;;;;;6195643;28;20078;-82
2022/02/20 14:23:11;;;;;;;1.15;0.28;;;12.40;72.80;;;;;;6200716;28;20042;-83
2022/02/20 14:26:14;;;;;;;1.30;0.30;;;12.50;72.80;;;;;;6198711;28;20047;-81
2022/02/20 14:29:22;;;;;;;1.13;0.10;;;12.50;72.00;;;;;;6199159;28;20089;-80
2022/02/20 14:32:24;;;;;;;;;;;12.50;72.20;;;;;;6198640;28;20125;-80
2022/02/20 14:35:29;;;;;;;1.50;0.20;;;12.50;72.10;;;;;;6197968;28;19926;-81
2022/02/20 14:38:35;;;;;;;0.15;0.10;;;12.50;72.10;;;;;;6199035;28;20435;-79
2022/02/20 14:41:37;;;;;;;0.30;0.10;;;12.60;72.00;;;;;;6203728;28;20046;-82
2022/02/20 14:44:40;;;;;;;1.20;0.30;;;12.70;71.70;;;;;;6203485;28;20073;-82
2022/02/20 14:47:42;;;;;;;3.40;0.40;;;12.70;71.80;;;;;;6195416;28;20051;-80
2022/02/20 14:50:44;;;;;;;0.28;0.28;;;12.70;71.60;;;;;;6182496;28;20074;-80
2022/02/20 14:53:47;;;;;;;0.30;0.10;;;12.80;71.30;;;;;;6203511;28;20132;-81
2022/02/20 14:56:49;;;;;;;0.30;0.10;;;12.80;71.10;;;;;;6203633;28;20042;-79
2022/02/20 14:59:51;;;;;;;0.20;0.13;;;12.80;71.10;;;;;;6202706;28;20046;-80
2022/02/20 15:02:53;;;;;;;0.35;0.10;;;12.70;71.30;;;;;;6186232;28;20127;-80
2022/02/20 15:05:54;;;;;;;0.70;0.25;;;12.80;71.10;;;;;;6177971;28;20146;-80
2022/02/20 15:08:58;;;;;;;1.55;0.20;;;12.90;71.10;;;;;;6179242;28;20074;-82
2022/02/20 15:11:59;;;;;;;1.17;1.00;;;12.80;71.10;;;;;;6177990;28;20051;-80
2022/02/20 15:15:01;;;;;;;4.07;0.30;;;12.80;71.00;;;;;;6178383;28;20051;-80
2022/02/20 15:18:03;;;;;;;2.58;0.30;;;12.80;70.90;;;;;;6189822;28;20045;-80
2022/02/20 15:21:05;;;;;;;0.45;0.30;;;12.80;71.00;;;;;;6202851;28;20484;-81
2022/02/20 15:24:08;;;;;;;0.60;0.20;;;12.80;70.90;;;;;;6202265;28;20046;-81
2022/02/20 15:27:10;;;;;;;0.20;0.10;;;12.90;70.80;;;;;;6201754;28;20048;-80
2022/02/20 15:30:16;;;;;;;0.70;0.20;;;12.80;70.50;;;;;;6202278;28;20052;-80
2022/02/20 15:33:17;;;;;;;2.45;0.63;;;12.80;70.80;;;;;;6202536;28;20515;-79
2022/02/20 15:36:20;;;;;;;0.52;0.30;;;12.80;70.70;;;;;;6202051;28;20072;-81
2022/02/20 15:39:23;;;;;;;1.08;0.50;;;12.80;70.90;;;;;;6202983;28;20054;-81
2022/02/20 15:42:25;;;;;;;1.27;0.28;;;12.90;70.90;;;;;;6202266;28;20046;-80
2022/02/20 15:45:27;;;;;;;1.40;0.60;;;12.80;71.00;;;;;;6200540;28;20127;-80
2022/02/20 15:48:28;;;;;;;2.08;0.30;;;12.70;71.10;;;;;;6191685;28;20043;-79
2022/02/20 15:51:30;;;;;;;1.30;0.73;;;12.70;71.10;;;;;;6200842;28;20062;-80
2022/02/20 15:54:33;;;;;;;2.97;0.30;;;12.70;71.20;;;;;;6200856;28;20177;-81
2022/02/20 15:57:35;;;;;;;0.75;0.20;;;12.60;71.20;;;;;;6201739;28;20062;-79
2022/02/20 16:00:37;;;;;;;0.70;0.30;;;12.60;71.40;;;;;;6186680;28;20054;-79